Time;durP1;ratioP1;P1;durP2;ratioP2;P2;SDS_P1;SDS_P2;PMS_P1;PMS_P2;Temp;Humidity;BMP_temperature;BMP_pressure;BME280_temperature;BME280_humidity;BME280_pressure;Samples;Min_cycle;Max_cycle;Signal;HPM_P1;HPM_P2
2021/09/04 00:02:17;;;;;;;5.55;2.17;;;;;;;21.44;41.35;99769.59;5033896;28;20025;-74
2021/09/04 00:04:42;;;;;;;4.45;2.95;;;;;;;21.24;41.35;99727.13;5034009;28;20057;-74
2021/09/04 00:07:08;;;;;;;4.78;2.38;;;;;;;21.40;41.37;99742.41;5032825;28;20021;-74
2021/09/04 00:09:35;;;;;;;6.78;2.67;;;;;;;21.49;41.56;99756.25;5034006;28;20025;-74
2021/09/04 00:12:01;;;;;;;4.05;2.30;;;;;;;21.10;41.41;99698.91;5049135;28;20041;-74
2021/09/04 00:14:27;;;;;;;4.47;2.33;;;;;;;21.15;41.27;99720.47;5033534;28;20080;-73
2021/09/04 00:16:53;;;;;;;3.95;2.55;;;;;;;21.42;41.45;99769.03;5033751;28;20025;-74
2021/09/04 00:19:18;;;;;;;4.18;2.30;;;;;;;21.38;41.69;99770.59;5033982;28;20040;-74
2021/09/04 00:21:44;;;;;;;4.07;2.13;;;;;;;21.03;41.86;99711.69;5033734;28;20103;-74
2021/09/04 00:24:09;;;;;;;5.70;1.88;;;;;;;21.32;41.96;99764.31;5033694;28;20025;-74
2021/09/04 00:26:34;;;;;;;5.90;2.55;;;;;;;20.89;41.90;99714.66;5033532;28;20033;-73
2021/09/04 00:29:00;;;;;;;5.70;2.58;;;;;;;20.95;41.98;99712.88;5033489;28;20104;-74
2021/09/04 00:31:25;;;;;;;4.95;2.33;;;;;;;20.59;42.16;99647.00;5033410;28;20021;-75
2021/09/04 00:33:51;;;;;;;3.75;2.17;;;;;;;21.20;42.17;99745.56;5032182;28;20035;-73
2021/09/04 00:36:16;;;;;;;7.43;2.83;;;;;;;21.15;42.19;99737.41;5033387;28;20036;-73
2021/09/04 00:38:42;;;;;;;2.72;2.13;;;;;;;21.07;42.14;99729.75;5033397;28;20488;-74
2021/09/04 00:41:07;;;;;;;4.63;2.30;;;;;;;21.19;42.11;99745.78;5033382;28;20022;-73
2021/09/04 00:43:32;;;;;;;4.53;2.47;;;;;;;21.19;42.30;99743.09;5032171;28;20034;-74
2021/09/04 00:46:09;;;;;;;4.43;2.60;;;;;;;21.18;42.36;99744.97;5033202;28;20029;-73
2021/09/04 00:48:35;;;;;;;2.65;2.30;;;;;;;21.10;42.35;99742.69;5033105;28;20029;-74
2021/09/04 00:51:01;;;;;;;4.95;2.72;;;;;;;21.16;42.35;99754.34;5033163;28;20028;-74
2021/09/04 00:53:26;;;;;;;2.63;2.22;;;;;;;20.76;42.24;99701.53;5033360;28;20025;-74
2021/09/04 00:55:52;;;;;;;5.15;2.10;;;;;;;21.04;42.12;99750.91;5033238;28;20025;-74
2021/09/04 00:58:18;;;;;;;5.03;2.45;;;;;;;20.89;42.20;99730.78;5032426;28;20029;-74
2021/09/04 01:00:50;;;;;;;4.65;2.30;;;;;;;21.08;42.44;99752.03;5033027;28;20026;-74
2021/09/04 01:03:15;;;;;;;;;;;;;;;20.80;43.07;99755.53;5033429;28;20030;-73
2021/09/04 01:05:41;;;;;;;3.97;2.25;;;;;;;20.88;42.71;99747.94;5033037;28;19909;-73
2021/09/04 01:08:06;;;;;;;5.80;2.65;;;;;;;20.81;42.58;99731.16;5048278;28;20448;-73
2021/09/04 01:10:32;;;;;;;3.63;2.42;;;;;;;20.73;42.70;99744.94;5032818;28;20033;-74
2021/09/04 01:12:57;;;;;;;3.53;2.63;;;;;;;20.60;43.08;99737.97;5032590;28;20025;-73
2021/09/04 01:15:23;;;;;;;3.47;2.20;;;;;;;20.71;42.96;99748.91;5032543;28;20044;-74
2021/09/04 01:17:48;;;;;;;3.53;2.60;;;;;;;20.20;42.93;99675.47;5032595;28;20026;-73
2021/09/04 01:20:14;;;;;;;3.92;2.78;;;;;;;20.54;42.92;99732.75;5032685;28;20505;-73
2021/09/04 01:22:39;;;;;;;8.05;2.97;;;;;;;20.19;43.04;99695.28;5032633;28;20032;-76
2021/09/04 01:25:07;;;;;;;4.93;3.15;;;;;;;20.42;43.16;99742.72;5032825;28;20025;-75
2021/09/04 01:27:35;;;;;;;4.00;2.40;;;;;;;20.52;43.36;99749.09;5032627;28;20409;-76
2021/09/04 01:30:01;;;;;;;6.60;2.92;;;;;;;20.44;43.45;99733.38;5032471;28;20025;-75
2021/09/04 01:32:26;;;;;;;3.63;2.70;;;;;;;20.06;43.59;99682.94;5032336;28;20026;-75
2021/09/04 01:34:52;;;;;;;7.22;3.38;;;;;;;20.38;43.65;99741.50;5032136;28;20087;-74
2021/09/04 01:37:17;;;;;;;5.80;2.85;;;;;;;20.42;43.71;99753.44;5032345;28;20075;-75
2021/09/04 01:39:43;;;;;;;4.85;3.08;;;;;;;19.84;43.86;99668.50;5032275;28;20414;-75
2021/09/04 01:42:08;;;;;;;4.55;3.03;;;;;;;20.25;44.10;99750.63;5032249;28;20096;-75
2021/09/04 01:44:34;;;;;;;3.05;2.60;;;;;;;20.08;44.14;99734.47;5032213;28;20497;-74
2021/09/04 01:46:59;;;;;;;5.35;2.85;;;;;;;20.17;44.06;99748.31;5032256;28;20508;-75
2021/09/04 01:49:25;;;;;;;5.30;2.75;;;;;;;19.70;44.39;99683.22;5032356;28;20523;-75
2021/09/04 01:51:50;;;;;;;4.32;2.70;;;;;;;19.67;44.44;99682.63;5032262;28;20033;-74
2021/09/04 01:54:16;;;;;;;4.53;2.65;;;;;;;20.10;44.29;99748.44;5032150;28;20036;-74
2021/09/04 01:56:41;;;;;;;5.55;2.60;;;;;;;20.12;44.19;99750.91;5032006;28;20498;-75
2021/09/04 01:59:07;;;;;;;5.35;2.88;;;;;;;20.07;44.24;99746.25;5031881;28;20087;-74
2021/09/04 02:01:32;;;;;;;4.47;2.45;;;;;;;20.09;44.48;99746.81;5031826;28;20025;-76
2021/09/04 02:03:57;;;;;;;4.78;2.90;;;;;;;19.87;44.25;99705.56;5031621;28;20047;-75
2021/09/04 02:06:23;;;;;;;4.70;2.53;;;;;;;19.52;44.36;99694.81;5031795;28;20017;-76
2021/09/04 02:08:48;;;;;;;6.88;2.88;;;;;;;19.80;44.54;99747.75;5031738;28;20095;-75
2021/09/04 02:11:14;;;;;;;6.53;3.28;;;;;;;19.65;44.54;99732.94;5031157;28;20017;-75
2021/09/04 02:13:39;;;;;;;5.90;2.83;;;;;;;19.61;44.90;99747.84;5031635;28;20510;-74
2021/09/04 02:16:05;;;;;;;5.68;2.58;;;;;;;19.54;44.90;99746.31;5031738;28;20469;-75
2021/09/04 02:18:33;;;;;;;5.43;2.97;;;;;;;19.19;45.18;99700.69;5031656;28;20025;-75
2021/09/04 02:20:59;;;;;;;4.45;2.88;;;;;;;19.29;45.29;99714.34;5031860;28;20060;-75
2021/09/04 02:23:24;;;;;;;4.47;2.78;;;;;;;19.31;45.46;99710.38;5047040;28;20057;-81
2021/09/04 02:25:50;;;;;;;4.97;2.85;;;;;;;19.09;45.52;99693.25;5030279;28;20021;-80
2021/09/04 02:28:15;;;;;;;3.17;2.53;;;;;;;19.14;45.39;99679.97;5031429;28;20036;-81
2021/09/04 02:30:41;;;;;;;6.40;3.08;;;;;;;19.45;45.48;99726.25;5031530;28;20561;-80
2021/09/04 02:33:07;;;;;;;4.82;3.30;;;;;;;19.01;45.62;99648.88;5031549;28;20025;-80
2021/09/04 02:35:32;;;;;;;5.25;2.95;;;;;;;19.47;45.57;99714.28;5030102;28;20418;-80
2021/09/04 02:37:58;;;;;;;5.50;3.17;;;;;;;18.80;45.48;99603.97;5031390;28;20101;-81
2021/09/04 02:40:23;;;;;;;7.20;2.95;;;;;;;19.11;45.31;99655.53;5031395;28;20095;-81
2021/09/04 02:42:48;;;;;;;6.10;3.20;;;;;;;19.21;45.23;99678.00;5031297;28;20461;-80
2021/09/04 02:45:14;;;;;;;3.53;3.00;;;;;;;19.12;45.28;99666.00;5031353;28;20448;-81
2021/09/04 02:47:40;;;;;;;4.20;3.00;;;;;;;19.25;45.42;99683.72;5031394;28;20017;-80
2021/09/04 02:50:06;;;;;;;5.65;3.53;;;;;;;19.38;45.27;99721.00;5031278;28;20501;-80
2021/09/04 02:52:31;;;;;;;3.72;3.00;;;;;;;19.32;45.21;99716.56;5031446;28;20064;-80
2021/09/04 02:54:57;;;;;;;4.38;3.25;;;;;;;18.87;45.42;99660.84;5031275;28;20148;-80
2021/09/04 02:57:22;;;;;;;4.88;3.28;;;;;;;19.03;45.43;99707.53;5031052;28;20430;-81
2021/09/04 02:59:47;;;;;;;4.57;3.30;;;;;;;18.95;45.67;99708.69;5030905;28;20026;-80
2021/09/04 03:02:14;;;;;;;5.65;3.83;;;;;;;18.86;45.66;99706.56;5031177;28;20036;-79
2021/09/04 03:04:40;;;;;;;5.25;3.47;;;;;;;18.46;45.83;99666.13;5031382;28;20544;-80
2021/09/04 03:07:05;;;;;;;5.25;3.20;;;;;;;18.50;46.08;99688.69;5031353;28;20053;-80
2021/09/04 03:09:31;;;;;;;4.88;3.65;;;;;;;18.49;46.03;99700.41;5029889;28;20061;-80
2021/09/04 03:11:56;;;;;;;4.80;3.40;;;;;;;18.56;46.17;99726.03;5031094;28;20017;-79
2021/09/04 03:14:21;;;;;;;4.30;3.25;;;;;;;18.23;46.56;99702.38;5031087;28;20045;-80
2021/09/04 03:16:47;;;;;;;5.57;3.47;;;;;;;18.03;46.45;99677.75;5031268;28;20025;-79
2021/09/04 03:19:12;;;;;;;6.28;3.60;;;;;;;18.34;46.49;99720.34;5031108;28;20470;-81
2021/09/04 03:21:38;;;;;;;7.68;3.58;;;;;;;18.29;46.49;99724.72;5033001;28;20033;-80
2021/09/04 03:24:03;;;;;;;4.68;3.47;;;;;;;17.92;46.69;99662.47;5034826;28;20049;-80
2021/09/04 03:26:29;;;;;;;7.82;3.85;;;;;;;17.73;46.88;99658.94;5034946;28;20048;-80
2021/09/04 03:28:54;;;;;;;5.15;3.75;;;;;;;17.77;46.83;99662.81;5034772;28;20029;-79
2021/09/04 03:31:20;;;;;;;5.38;3.42;;;;;;;17.87;47.18;99697.84;5033536;28;20029;-79
2021/09/04 03:33:45;;;;;;;6.45;4.35;;;;;;;18.09;47.11;99735.63;5034823;28;20021;-80
2021/09/04 03:36:10;;;;;;;4.78;3.30;;;;;;;17.90;47.26;99704.59;5034638;28;20053;-81
2021/09/04 03:38:36;;;;;;;5.72;3.65;;;;;;;18.06;47.30;99741.44;5034507;28;20032;-80
2021/09/04 03:41:01;;;;;;;5.43;3.70;;;;;;;17.51;47.38;99641.69;5034388;28;20071;-80
2021/09/04 03:43:27;;;;;;;5.38;3.63;;;;;;;18.09;47.06;99728.44;5034734;28;20506;-79
2021/09/04 03:45:52;;;;;;;6.32;3.80;;;;;;;17.72;47.29;99662.66;5034438;28;20512;-80
2021/09/04 03:48:17;;;;;;;6.40;3.83;;;;;;;18.15;47.25;99741.94;5034590;28;20022;-79
2021/09/04 03:50:43;;;;;;;4.65;3.72;;;;;;;18.18;47.19;99726.28;5033313;28;20109;-79
2021/09/04 03:53:08;;;;;;;4.43;3.75;;;;;;;17.93;46.83;99696.16;5033129;28;20044;-79
2021/09/04 03:55:34;;;;;;;4.97;3.50;;;;;;;17.86;47.06;99688.22;5034403;28;20018;-80
2021/09/04 03:57:59;;;;;;;6.68;3.92;;;;;;;18.24;47.00;99733.41;5034204;28;20028;-79
2021/09/04 04:00:25;;;;;;;5.35;3.78;;;;;;;18.21;46.96;99731.19;5034295;28;20072;-79
2021/09/04 04:02:50;;;;;;;6.68;3.90;;;;;;;17.87;47.06;99692.50;5034162;28;20108;-79
2021/09/04 04:05:16;;;;;;;5.82;4.28;;;;;;;17.97;46.85;99708.84;5032962;28;20029;-80
2021/09/04 04:07:41;;;;;;;4.70;3.63;;;;;;;18.10;46.97;99742.63;5032710;28;20021;-81
2021/09/04 04:10:07;;;;;;;7.18;4.05;;;;;;;17.66;46.91;99679.53;5033796;28;20021;-81
2021/09/04 04:12:33;;;;;;;4.53;4.03;;;;;;;17.99;47.21;99752.19;5034120;28;20029;-82
2021/09/04 04:14:58;;;;;;;9.32;3.85;;;;;;;17.42;47.21;99684.69;5033911;28;20050;-81
2021/09/04 04:17:24;;;;;;;5.43;3.85;;;;;;;17.38;47.15;99688.00;5033882;28;20037;-81
2021/09/04 04:19:49;;;;;;;7.40;3.80;;;;;;;17.86;47.27;99771.00;5034038;28;20028;-81
2021/09/04 04:22:14;;;;;;;6.40;3.92;;;;;;;17.87;47.38;99755.81;5033757;28;20037;-81
2021/09/04 04:24:40;;;;;;;6.68;4.03;;;;;;;17.93;47.13;99747.72;5033694;28;20025;-81
2021/09/04 04:27:06;;;;;;;6.75;4.10;;;;;;;17.92;47.07;99737.25;5033746;28;20117;-81
2021/09/04 04:29:32;;;;;;;7.32;4.25;;;;;;;17.58;47.23;99682.47;5033655;28;20022;-81
2021/09/04 04:31:57;;;;;;;5.90;4.05;;;;;;;17.53;47.12;99661.78;5033292;28;20029;-81
2021/09/04 04:34:23;;;;;;;5.32;3.90;;;;;;;18.04;46.77;99733.63;5032906;28;20025;-81
2021/09/04 04:36:48;;;;;;;6.90;4.75;;;;;;;18.04;46.88;99730.16;5033396;28;20552;-82
2021/09/04 04:39:14;;;;;;;5.40;4.20;;;;;;;18.10;46.75;99739.94;5032175;28;20021;-81
2021/09/04 04:41:40;;;;;;;6.20;4.15;;;;;;;17.91;46.47;99703.56;5033382;28;20114;-81
2021/09/04 04:44:05;;;;;;;7.57;4.13;;;;;;;18.25;46.57;99758.28;5033209;28;20057;-81
2021/09/04 04:46:31;;;;;;;6.88;4.18;;;;;;;18.28;46.79;99760.50;5033076;28;20491;-81
2021/09/04 04:48:56;;;;;;;6.63;3.97;;;;;;;17.97;46.58;99694.66;5033331;28;20025;-81
2021/09/04 04:51:22;;;;;;;6.63;4.18;;;;;;;18.02;46.63;99708.19;5033487;28;20053;-81
2021/09/04 04:53:47;;;;;;;7.18;4.28;;;;;;;18.38;46.56;99755.47;5033370;28;20104;-81
2021/09/04 04:56:13;;;;;;;7.18;4.43;;;;;;;18.00;46.59;99700.38;5033093;28;20468;-81
2021/09/04 04:58:38;;;;;;;7.95;4.43;;;;;;;17.87;46.45;99673.81;5032823;28;20025;-80
2021/09/04 05:01:04;;;;;;;6.70;3.97;;;;;;;18.24;46.47;99724.59;5033062;28;20025;-81
2021/09/04 05:03:29;;;;;;;8.45;4.60;;;;;;;18.12;46.45;99702.31;5032813;28;20052;-81
2021/09/04 05:05:55;;;;;;;7.75;4.00;;;;;;;18.31;46.33;99738.69;5032859;28;20057;-81
2021/09/04 05:08:20;;;;;;;12.50;5.13;;;;;;;18.47;46.45;99754.13;5032833;28;20026;-82
2021/09/04 05:10:46;;;;;;;7.43;4.30;;;;;;;18.49;46.46;99749.38;5032651;28;20035;-81
2021/09/04 05:13:11;;;;;;;6.57;4.50;;;;;;;18.57;46.41;99742.91;5032162;28;20055;-81
2021/09/04 05:15:37;;;;;;;7.75;4.93;;;;;;;18.70;46.46;99759.66;5032714;28;20536;-82
2021/09/04 05:18:02;;;;;;;4.90;4.10;;;;;;;18.12;46.54;99670.25;5032589;28;20025;-81
2021/09/04 05:20:28;;;;;;;6.32;3.90;;;;;;;18.69;46.22;99746.50;5032822;28;20101;-81
2021/09/04 05:22:53;;;;;;;5.88;4.40;;;;;;;18.59;46.35;99736.31;5032678;28;20025;-81
2021/09/04 05:25:19;;;;;;;8.20;4.38;;;;;;;18.62;46.59;99727.06;5032570;28;20021;-75
2021/09/04 05:27:45;;;;;;;6.90;4.20;;;;;;;18.65;46.60;99730.09;5032584;28;20017;-75
2021/09/04 05:30:11;;;;;;;8.75;4.38;;;;;;;18.70;46.71;99730.22;5032608;28;20494;-74
2021/09/04 05:32:36;;;;;;;7.53;4.28;;;;;;;18.67;46.69;99727.19;5032566;28;20117;-74
2021/09/04 05:35:03;;;;;;;6.57;4.20;;;;;;;18.30;46.72;99676.38;5047855;28;20120;-74
2021/09/04 05:37:28;;;;;;;4.90;4.40;;;;;;;18.75;46.54;99734.09;5032358;28;20018;-74
2021/09/04 05:39:54;;;;;;;7.75;4.30;;;;;;;18.82;46.74;99724.09;5032363;28;20517;-74
2021/09/04 05:42:20;;;;;;;7.05;4.50;;;;;;;18.87;46.76;99730.41;5032320;28;20434;-75
2021/09/04 05:44:45;;;;;;;7.47;4.22;;;;;;;18.93;46.85;99740.19;5032086;28;20498;-75
2021/09/04 05:47:11;;;;;;;8.90;4.53;;;;;;;18.57;46.73;99668.03;5047555;28;20025;-75
2021/09/04 05:49:36;;;;;;;8.18;4.40;;;;;;;19.05;46.67;99729.53;5032111;28;20021;-74
2021/09/04 05:52:02;;;;;;;6.68;4.35;;;;;;;19.13;46.60;99725.72;5032152;28;20029;-75
2021/09/04 05:54:28;;;;;;;6.88;4.40;;;;;;;19.18;46.75;99737.34;5031874;28;20017;-74
2021/09/04 05:56:53;;;;;;;7.15;4.18;;;;;;;19.28;46.52;99742.16;5032314;28;20025;-74
2021/09/04 05:59:19;;;;;;;7.35;4.30;;;;;;;19.38;46.32;99744.28;5031868;28;20029;-75
2021/09/04 06:01:44;;;;;;;7.95;4.53;;;;;;;19.08;46.09;99688.94;5032015;28;20032;-74
2021/09/04 06:04:09;;;;;;;6.38;4.10;;;;;;;19.51;46.10;99736.03;5031859;28;20025;-74
2021/09/04 06:06:35;;;;;;;6.82;3.58;;;;;;;19.37;46.15;99732.78;5031899;28;20112;-74
2021/09/04 06:09:02;;;;;;;4.53;3.05;;;;;;;19.33;45.90;99715.53;5031794;28;20021;-75
2021/09/04 06:11:29;;;;;;;4.25;3.42;;;;;;;19.71;45.55;99763.34;5031724;28;20513;-74
2021/09/04 06:13:54;;;;;;;5.70;3.25;;;;;;;19.33;45.57;99689.56;5031480;28;20053;-74
2021/09/04 06:16:20;;;;;;;4.30;2.92;;;;;;;19.80;45.43;99753.09;5031381;28;20025;-74
2021/09/04 06:18:45;;;;;;;3.72;3.20;;;;;;;19.95;45.42;99756.13;5031708;28;20083;-75
2021/09/04 06:21:10;;;;;;;3.50;3.20;;;;;;;20.03;45.28;99754.94;5031243;28;20399;-75
2021/09/04 06:23:36;;;;;;;8.35;3.30;;;;;;;19.77;44.89;99710.69;5030091;28;20028;-75
2021/09/04 06:26:01;;;;;;;5.45;3.22;;;;;;;20.19;44.95;99765.00;5030200;28;20482;-75
2021/09/04 06:28:27;;;;;;;9.88;3.60;;;;;;;20.15;44.80;99743.19;5031368;28;20109;-75
2021/09/04 06:30:52;;;;;;;7.50;3.60;;;;;;;20.11;44.56;99755.44;5031436;28;20025;-74
2021/09/04 06:33:18;;;;;;;4.47;3.58;;;;;;;20.27;44.63;99781.53;5031143;28;20057;-76
2021/09/04 06:35:43;;;;;;;5.18;3.50;;;;;;;19.95;44.42;99707.88;5031166;28;20032;-75
2021/09/04 06:38:09;;;;;;;7.90;3.25;;;;;;;19.92;44.42;99690.41;5030998;28;20022;-74
2021/09/04 06:40:34;;;;;;;5.88;3.47;;;;;;;20.16;44.61;99715.34;5031171;28;20422;-74
2021/09/04 06:42:59;;;;;;;261.60;21.58;;;;;;;20.17;44.30;99702.75;5031166;28;20021;-75
2021/09/04 06:45:25;;;;;;;41.65;6.88;;;;;;;20.68;44.04;99768.16;5031248;28;20078;-74
2021/09/04 06:47:50;;;;;;;16.02;5.00;;;;;;;20.81;43.92;99762.56;5031133;28;20498;-74
2021/09/04 06:50:16;;;;;;;7.72;4.68;;;;;;;20.94;43.75;99767.63;5031251;28;20108;-74
2021/09/04 06:52:41;;;;;;;8.10;4.60;;;;;;;20.91;43.72;99752.00;5031218;28;20028;-74
2021/09/04 06:55:07;;;;;;;5.53;4.40;;;;;;;20.67;43.43;99699.47;5031316;28;20086;-74
2021/09/04 06:57:32;;;;;;;5.15;3.88;;;;;;;21.17;43.20;99764.84;5034627;28;20026;-74
2021/09/04 06:59:58;;;;;;;5.55;4.03;;;;;;;21.18;42.83;99753.03;5035089;28;20026;-75
2021/09/04 07:02:23;;;;;;;6.22;4.03;;;;;;;21.23;42.86;99750.47;5035017;28;20022;-75
2021/09/04 07:04:48;;;;;;;7.15;4.85;;;;;;;21.32;42.62;99766.19;5035126;28;20494;-75
2021/09/04 07:07:14;;;;;;;7.95;4.53;;;;;;;21.17;42.75;99729.91;5035143;28;20021;-75
2021/09/04 07:09:39;;;;;;;7.70;4.15;;;;;;;21.46;42.38;99765.63;5035189;28;20498;-74
2021/09/04 07:12:05;;;;;;;5.88;4.38;;;;;;;21.29;42.38;99729.06;5035094;28;20021;-75
2021/09/04 07:14:30;;;;;;;23.98;6.03;;;;;;;21.66;42.17;99756.28;5034803;28;20046;-74
2021/09/04 07:16:55;;;;;;;10.55;4.32;;;;;;;21.45;42.07;99714.81;5034805;28;20528;-74
2021/09/04 07:19:21;;;;;;;104.60;12.40;;;;;;;21.72;41.75;99731.94;5034775;28;20030;-74
2021/09/04 07:21:46;;;;;;;15.65;4.60;;;;;;;21.82;41.74;99725.88;5034675;28;20044;-74
2021/09/04 07:24:12;;;;;;;6.40;4.20;;;;;;;21.98;41.72;99734.97;5034806;28;20021;-74
2021/09/04 07:26:37;;;;;;;18.00;4.68;;;;;;;22.04;41.50;99729.47;5033462;28;20021;-74
2021/09/04 07:29:03;;;;;;;222.82;20.80;;;;;;;22.00;41.51;99712.16;5034821;28;20115;-74
2021/09/04 07:31:28;;;;;;;35.85;6.82;;;;;;;22.05;41.35;99709.56;5034703;28;20414;-75
2021/09/04 07:33:54;;;;;;;8.20;4.15;;;;;;;22.37;41.03;99770.78;5034591;28;20028;-74
2021/09/04 07:36:19;;;;;;;324.25;28.40;;;;;;;22.39;40.88;99763.28;5034416;28;20025;-74
2021/09/04 07:38:45;;;;;;;12.95;5.10;;;;;;;22.23;41.04;99721.91;5034644;28;20025;-74
2021/09/04 07:41:10;;;;;;;15.52;4.40;;;;;;;22.26;40.79;99715.22;5049995;28;20025;-74
2021/09/04 07:43:36;;;;;;;9.10;4.10;;;;;;;22.58;40.63;99755.72;5034554;28;20041;-74
2021/09/04 07:46:01;;;;;;;5.32;3.55;;;;;;;22.19;40.51;99681.25;5034312;28;20025;-75
2021/09/04 07:48:27;;;;;;;5.18;3.63;;;;;;;22.63;40.50;99737.75;5034146;28;20450;-74
2021/09/04 07:50:55;;;;;;;6.22;3.70;;;;;;;22.73;40.40;99745.13;5034446;28;20021;-74
2021/09/04 07:53:21;;;;;;;5.13;3.45;;;;;;;22.76;40.43;99750.00;5034295;28;20025;-74
2021/09/04 07:55:47;;;;;;;8.48;3.78;;;;;;;22.85;40.32;99736.94;5034514;28;20013;-74
2021/09/04 07:58:12;;;;;;;7.07;3.85;;;;;;;22.94;40.06;99738.91;5034209;28;20032;-74
2021/09/04 08:00:38;;;;;;;5.07;4.40;;;;;;;22.64;39.86;99687.44;5034142;28;20429;-74
2021/09/04 08:03:03;;;;;;;6.25;4.53;;;;;;;22.89;40.03;99729.97;5033959;28;20410;-74
2021/09/04 08:05:29;;;;;;;6.85;3.83;;;;;;;23.08;39.99;99731.25;5033519;28;20108;-74
2021/09/04 08:07:54;;;;;;;6.45;3.83;;;;;;;23.24;39.98;99727.63;5033484;28;20026;-75
2021/09/04 08:10:20;;;;;;;4.60;3.95;;;;;;;23.36;39.59;99722.06;5032209;28;20045;-74
2021/09/04 08:12:46;;;;;;;8.32;4.40;;;;;;;23.45;39.52;99723.22;5033678;28;20476;-75
2021/09/04 08:15:11;;;;;;;6.95;4.30;;;;;;;23.29;39.45;99681.06;5033766;28;20032;-74
2021/09/04 08:17:37;;;;;;;5.65;4.15;;;;;;;23.71;39.05;99719.66;5033565;28;20406;-75
2021/09/04 08:20:02;;;;;;;185.10;18.40;;;;;;;23.80;38.91;99720.03;5033400;28;20029;-73
2021/09/04 08:22:29;;;;;;;58.47;12.45;;;;;;;23.94;38.75;99713.09;5033446;28;20075;-75
2021/09/04 08:24:55;;;;;;;15.43;10.18;;;;;;;24.00;38.76;99698.56;5033408;28;20550;-75
2021/09/04 08:27:20;;;;;;;11.35;8.38;;;;;;;23.90;38.40;99685.03;5033303;28;20026;-75
2021/09/04 08:29:46;;;;;;;9.23;6.43;;;;;;;23.23;38.12;99572.47;5033463;28;20053;-74
2021/09/04 08:32:11;;;;;;;8.05;4.85;;;;;;;23.93;37.93;99660.22;5033420;28;20100;-75
2021/09/04 08:34:36;;;;;;;70.20;9.82;;;;;;;24.03;37.78;99679.16;5033231;28;20482;-75
2021/09/04 08:37:03;;;;;;;14.32;5.40;;;;;;;24.38;37.44;99721.69;5033163;28;20354;-74
2021/09/04 08:39:29;;;;;;;8.20;5.10;;;;;;;24.42;37.33;99713.88;5032986;28;20505;-75
2021/09/04 08:41:54;;;;;;;9.02;5.85;;;;;;;24.60;37.19;99712.59;5033079;28;20060;-74
2021/09/04 08:44:20;;;;;;;42.17;7.57;;;;;;;24.47;36.83;99680.69;5031685;28;20036;-75
2021/09/04 08:46:46;;;;;;;34.58;19.13;;;;;;;24.75;36.91;99715.34;5048294;28;20032;-74
2021/09/04 08:49:11;;;;;;;13.90;8.25;;;;;;;24.85;36.45;99699.16;5033114;28;20021;-74
2021/09/04 08:51:37;;;;;;;8.45;6.47;;;;;;;24.84;36.44;99667.03;5033144;28;20116;-75
2021/09/04 08:54:02;;;;;;;10.77;7.97;;;;;;;25.23;35.83;99705.16;5032850;28;20052;-74
2021/09/04 08:56:28;;;;;;;29.35;26.13;;;;;;;24.92;36.07;99645.69;5032812;28;20414;-75
2021/09/04 08:58:53;;;;;;;8.45;6.25;;;;;;;25.34;36.03;99702.22;5032751;28;20421;-74
2021/09/04 09:01:24;;;;;;;6.38;4.78;;;;;;;25.39;35.44;99695.19;5032740;28;20018;-74
2021/09/04 09:03:51;;;;;;;9.98;8.43;;;;;;;25.34;35.29;99687.88;5032492;28;20026;-75
2021/09/04 09:06:28;;;;;;;7.63;5.00;;;;;;;25.34;35.45;99682.50;5032818;28;20029;-75
2021/09/04 09:08:54;;;;;;;5.88;4.40;;;;;;;25.44;35.06;99690.59;5032684;28;20025;-75
2021/09/04 09:11:20;;;;;;;4.78;3.80;;;;;;;25.59;34.99;99670.81;5031451;28;20409;-75
2021/09/04 09:13:55;;;;;;;6.53;4.60;;;;;;;25.83;34.36;99679.19;5032287;28;20057;-76
2021/09/04 09:16:23;;;;;;;6.18;4.32;;;;;;;25.97;33.97;99691.84;5032105;28;20021;-75
2021/09/04 09:19:00;;;;;;;9.35;4.20;;;;;;;26.13;32.64;99687.22;5031647;28;20022;-74
2021/09/04 09:21:33;;;;;;;22.05;13.27;;;;;;;26.00;33.61;99636.38;5032154;28;20033;-74
2021/09/04 09:24:08;;;;;;;16.90;8.25;;;;;;;26.59;33.41;99678.91;5031719;28;20524;-74
2021/09/04 09:26:33;;;;;;;32.10;9.05;;;;;;;26.86;32.56;99686.63;5031816;28;20091;-75
2021/09/04 09:29:37;;;;;;;35.03;6.15;;;;;;;27.02;32.54;99669.19;5032128;28;20459;-75
2021/09/04 09:32:10;;;;;;;52.00;8.50;;;;;;;27.10;32.07;99675.91;5010418;28;20061;-75
2021/09/04 09:34:44;;;;;;;35.65;5.93;;;;;;;27.17;31.62;99674.47;5010102;28;20033;-75
2021/09/04 09:37:12;;;;;;;8.50;4.80;;;;;;;27.34;31.65;99684.09;5022277;28;20115;-75
2021/09/04 09:39:44;;;;;;;32.58;7.00;;;;;;;27.62;31.21;99687.94;5032039;28;20025;-75
2021/09/04 09:42:12;;;;;;;30.83;7.38;;;;;;;27.52;31.09;99629.97;5032150;28;20074;-73
2021/09/04 09:44:38;;;;;;;254.05;34.05;;;;;;;28.00;31.10;99654.41;5032029;28;20029;-76
2021/09/04 09:47:07;;;;;;;60.20;12.02;;;;;;;28.33;30.77;99644.53;5031726;28;20044;-72
2021/09/04 09:49:35;;;;;;;9.82;5.28;;;;;;;28.57;30.02;99662.69;5031772;28;20143;-74
2021/09/04 09:52:03;;;;;;;12.85;6.88;;;;;;;28.79;29.97;99671.84;5030314;28;20033;-72
2021/09/04 09:54:31;;;;;;;7.65;4.88;;;;;;;28.91;29.93;99679.56;5038769;28;20045;-74
2021/09/04 09:56:58;;;;;;;4.90;4.28;;;;;;;29.06;29.70;99670.41;5051625;28;20033;-75
2021/09/04 09:59:28;;;;;;;6.13;3.90;;;;;;;29.20;28.68;99662.28;5051258;28;20032;-74
2021/09/04 10:01:55;;;;;;;6.00;3.92;;;;;;;29.04;28.54;99653.56;5051252;28;20079;-74
2021/09/04 10:04:24;;;;;;;6.07;3.88;;;;;;;29.16;28.56;99651.19;5050097;28;20035;-75
2021/09/04 10:06:51;;;;;;;8.23;4.35;;;;;;;29.10;27.93;99604.25;5051282;28;20567;-74
2021/09/04 10:09:16;;;;;;;5.28;3.72;;;;;;;29.56;27.73;99644.25;5051163;28;20032;-74
2021/09/04 10:11:42;;;;;;;5.70;4.20;;;;;;;29.81;27.37;99634.00;5051311;28;20025;-73
2021/09/04 10:14:07;;;;;;;7.22;4.13;;;;;;;29.95;27.68;99622.00;5051002;28;20126;-73
2021/09/04 10:16:35;;;;;;;7.68;3.80;;;;;;;30.15;27.03;99614.53;5051188;28;20125;-74
2021/09/04 10:19:01;;;;;;;4.30;3.70;;;;;;;30.25;26.90;99627.94;5051028;28;20090;-73
2021/09/04 10:21:27;;;;;;;5.15;4.18;;;;;;;30.33;26.79;99625.28;5050975;28;20112;-74
2021/09/04 10:23:54;;;;;;;4.85;3.83;;;;;;;30.24;26.24;99580.00;5051119;28;20052;-74
2021/09/04 10:26:33;;;;;;;6.38;3.83;;;;;;;30.54;26.49;99622.13;5050037;28;20028;-74
2021/09/04 10:29:06;;;;;;;7.30;4.13;;;;;;;30.60;26.27;99608.09;5049521;28;20044;-74
2021/09/04 10:31:54;;;;;;;3.83;3.47;;;;;;;30.75;25.75;99612.38;5049837;28;20027;-75
2021/09/04 10:34:37;;;;;;;6.40;3.42;;;;;;;30.58;25.78;99565.88;5050887;28;20055;-75
2021/09/04 10:37:02;;;;;;;4.35;3.95;;;;;;;31.04;25.26;99600.22;5051061;28;20073;-75
2021/09/04 10:40:07;;;;;;;5.63;4.75;;;;;;;31.07;25.02;99594.13;5051050;28;20033;-75
2021/09/04 10:42:36;;;;;;;45.50;7.78;;;;;;;31.21;25.16;99586.69;5050868;28;20024;-76
2021/09/04 10:45:17;;;;;;;59.10;9.70;;;;;;;31.43;24.51;99588.59;5050702;28;20032;-74
2021/09/04 10:47:45;;;;;;;5.75;3.92;;;;;;;31.27;24.76;99582.75;5050833;28;20489;-74
2021/09/04 10:50:20;;;;;;;9.43;4.47;;;;;;;31.27;24.07;99580.00;5050713;28;20159;-74
2021/09/04 10:52:45;;;;;;;33.30;6.43;;;;;;;31.22;24.25;99591.88;5051123;28;20121;-75
2021/09/04 10:55:46;;;;;;;451.45;43.85;;;;;;;31.38;24.21;99586.81;5050947;28;20478;-73
2021/09/04 10:58:20;;;;;;;78.72;11.55;;;;;;;31.15;24.22;99542.38;5028760;28;20029;-74
2021/09/04 11:00:47;;;;;;;10.20;4.47;;;;;;;31.75;23.84;99579.25;5047826;28;20036;-74
2021/09/04 11:03:14;;;;;;;5.50;4.72;;;;;;;31.91;23.76;99581.22;5050875;28;20029;-74
2021/09/04 11:06:05;;;;;;;894.13;103.22;;;;;;;31.69;23.56;99539.53;5051053;28;20091;-74
2021/09/04 11:08:43;;;;;;;22.17;6.20;;;;;;;31.76;23.42;99537.97;5050986;28;20048;-75
2021/09/04 11:11:24;;;;;;;12.77;4.35;;;;;;;31.93;22.68;99573.50;5050870;28;20086;-75
2021/09/04 11:13:50;;;;;;;6.43;4.10;;;;;;;31.71;23.08;99548.25;5049133;28;20136;-75
2021/09/04 11:16:36;;;;;;;9.60;4.47;;;;;;;31.97;23.08;99561.97;5050533;28;20082;-74
2021/09/04 11:19:13;;;;;;;42.58;7.68;;;;;;;31.87;23.22;99525.63;5050702;28;20024;-75
2021/09/04 11:22:06;;;;;;;23.70;6.35;;;;;;;32.35;22.76;99564.91;5050675;28;20028;-73
2021/09/04 11:24:43;;;;;;;14.45;4.38;;;;;;;32.26;22.34;99550.44;5050823;28;20064;-79
2021/09/04 11:27:19;;;;;;;4.82;3.60;;;;;;;32.42;22.30;99559.75;5050752;28;20032;-79
2021/09/04 11:29:51;;;;;;;34.70;7.25;;;;;;;32.14;22.65;99551.88;5050657;28;20025;-80
2021/09/04 11:32:19;;;;;;;779.35;91.00;;;;;;;32.15;22.74;99544.47;5049402;28;20025;-80